sensor_id;sensor_type;location;lat;lon;timestamp;pressure;altitude;pressure_sealevel;temperature;humidity
23164;BME280;31429;42.674;23.350;2023-02-10T00:00:43;96590.44;;;-4.11;100.00
23164;BME280;31429;42.674;23.350;2023-02-10T00:01:44;96589.72;;;-4.08;100.00
23164;BME280;31429;42.674;23.350;2023-02-10T00:02:44;96590.00;;;-4.02;100.00
23164;BME280;31429;42.674;23.350;2023-02-10T00:03:45;96587.53;;;-4.02;100.00
23164;BME280;31429;42.674;23.350;2023-02-10T00:04:46;96587.22;;;-4.08;100.00
23164;BME280;31429;42.674;23.350;2023-02-10T00:05:47;96581.38;;;-4.09;100.00
23164;BME280;31429;42.674;23.350;2023-02-10T00:06:47;96589.97;;;-4.03;100.00
23164;BME280;31429;42.674;23.350;2023-02-10T00:07:48;96585.75;;;-4.04;100.00
23164;BME280;31429;42.674;23.350;2023-02-10T00:08:52;96586.09;;;-4.15;100.00
23164;BME280;31429;42.674;23.350;2023-02-10T00:09:53;96580.66;;;-4.24;100.00
23164;BME280;31429;42.674;23.350;2023-02-10T00:10:56;96589.44;;;-4.14;100.00
23164;BME280;31429;42.674;23.350;2023-02-10T00:11:57;96586.00;;;-4.16;100.00
23164;BME280;31429;42.674;23.350;2023-02-10T00:12:59;96590.66;;;-4.24;100.00
23164;BME280;31429;42.674;23.350;2023-02-10T00:14:00;96586.94;;;-4.32;100.00
23164;BME280;31429;42.674;23.350;2023-02-10T00:15:01;96588.72;;;-4.29;100.00
23164;BME280;31429;42.674;23.350;2023-02-10T00:16:03;96588.94;;;-4.25;100.00
23164;BME280;31429;42.674;23.350;2023-02-10T00:17:04;96581.00;;;-4.34;100.00
23164;BME280;31429;42.674;23.350;2023-02-10T00:18:05;96580.44;;;-4.28;100.00
23164;BME280;31429;42.674;23.350;2023-02-10T00:19:06;96585.28;;;-4.31;100.00
23164;BME280;31429;42.674;23.350;2023-02-10T00:20:07;96588.00;;;-4.27;100.00
23164;BME280;31429;42.674;23.350;2023-02-10T00:21:10;96585.44;;;-4.28;100.00
23164;BME280;31429;42.674;23.350;2023-02-10T00:22:12;96584.22;;;-4.36;100.00
23164;BME280;31429;42.674;23.350;2023-02-10T00:23:12;96580.19;;;-4.50;100.00
23164;BME280;31429;42.674;23.350;2023-02-10T00:24:15;96578.22;;;-4.74;100.00
23164;BME280;31429;42.674;23.350;2023-02-10T00:25:16;96579.09;;;-4.89;100.00
23164;BME280;31429;42.674;23.350;2023-02-10T00:26:16;96579.28;;;-5.02;100.00
23164;BME280;31429;42.674;23.350;2023-02-10T00:27:17;96576.16;;;-5.14;100.00
23164;BME280;31429;42.674;23.350;2023-02-10T00:28:23;96581.06;;;-5.16;100.00
23164;BME280;31429;42.674;23.350;2023-02-10T00:29:24;96581.00;;;-5.17;100.00
23164;BME280;31429;42.674;23.350;2023-02-10T00:30:25;96575.09;;;-5.19;100.00
23164;BME280;31429;42.674;23.350;2023-02-10T00:31:26;96578.41;;;-5.19;100.00
23164;BME280;31429;42.674;23.350;2023-02-10T00:32:26;96575.84;;;-5.20;100.00
23164;BME280;31429;42.674;23.350;2023-02-10T00:33:27;96577.09;;;-5.12;100.00
23164;BME280;31429;42.674;23.350;2023-02-10T00:34:28;96580.28;;;-4.99;100.00
23164;BME280;31429;42.674;23.350;2023-02-10T00:35:28;96576.53;;;-4.91;100.00
23164;BME280;31429;42.674;23.350;2023-02-10T00:36:29;96572.09;;;-4.80;100.00
23164;BME280;31429;42.674;23.350;2023-02-10T00:37:30;96576.13;;;-4.82;100.00
23164;BME280;31429;42.674;23.350;2023-02-10T00:38:30;96564.66;;;-4.79;100.00
23164;BME280;31429;42.674;23.350;2023-02-10T00:39:32;96569.91;;;-4.74;100.00
23164;BME280;31429;42.674;23.350;2023-02-10T00:40:33;96571.03;;;-4.68;100.00
23164;BME280;31429;42.674;23.350;2023-02-10T00:41:34;96560.13;;;-4.70;100.00
23164;BME280;31429;42.674;23.350;2023-02-10T00:42:36;96559.78;;;-4.59;100.00
23164;BME280;31429;42.674;23.350;2023-02-10T00:43:37;96569.91;;;-4.56;100.00
23164;BME280;31429;42.674;23.350;2023-02-10T00:44:40;96559.09;;;-4.57;100.00
23164;BME280;31429;42.674;23.350;2023-02-10T00:45:40;96569.13;;;-4.55;100.00
23164;BME280;31429;42.674;23.350;2023-02-10T00:46:41;96568.53;;;-4.51;100.00
23164;BME280;31429;42.674;23.350;2023-02-10T00:47:42;96554.47;;;-4.49;100.00
23164;BME280;31429;42.674;23.350;2023-02-10T00:48:42;96560.09;;;-4.53;100.00
23164;BME280;31429;42.674;23.350;2023-02-10T00:49:43;96556.03;;;-4.51;100.00
23164;BME280;31429;42.674;23.350;2023-02-10T00:50:44;96554.22;;;-4.54;100.00
23164;BME280;31429;42.674;23.350;2023-02-10T00:51:44;96551.69;;;-4.55;100.00
23164;BME280;31429;42.674;23.350;2023-02-10T00:52:45;96555.38;;;-4.47;100.00
23164;BME280;31429;42.674;23.350;2023-02-10T00:53:46;96559.47;;;-4.49;100.00
23164;BME280;31429;42.674;23.350;2023-02-10T00:54:51;96553.41;;;-4.54;100.00
23164;BME280;31429;42.674;23.350;2023-02-10T00:55:52;96550.81;;;-4.56;100.00
23164;BME280;31429;42.674;23.350;2023-02-10T00:56:52;96556.47;;;-4.60;100.00
23164;BME280;31429;42.674;23.350;2023-02-10T00:57:53;96550.16;;;-4.70;100.00
23164;BME280;31429;42.674;23.350;2023-02-10T00:58:54;96550.41;;;-4.81;100.00
23164;BME280;31429;42.674;23.350;2023-02-10T00:59:54;96559.94;;;-4.90;100.00
23164;BME280;31429;42.674;23.350;2023-02-10T01:00:55;96559.34;;;-5.02;100.00
23164;BME280;31429;42.674;23.350;2023-02-10T01:01:56;96547.41;;;-5.08;100.00
23164;BME280;31429;42.674;23.350;2023-02-10T01:02:56;96548.66;;;-5.16;100.00
23164;BME280;31429;42.674;23.350;2023-02-10T01:03:57;96544.53;;;-5.15;100.00
23164;BME280;31429;42.674;23.350;2023-02-10T01:04:58;96548.25;;;-5.07;100.00
23164;BME280;31429;42.674;23.350;2023-02-10T01:05:59;96548.81;;;-4.97;100.00
23164;BME280;31429;42.674;23.350;2023-02-10T01:07:00;96545.38;;;-4.83;100.00
23164;BME280;31429;42.674;23.350;2023-02-10T01:08:01;96551.19;;;-4.82;100.00
23164;BME280;31429;42.674;23.350;2023-02-10T01:09:02;96538.03;;;-4.80;100.00
23164;BME280;31429;42.674;23.350;2023-02-10T01:10:04;96551.34;;;-4.79;100.00
23164;BME280;31429;42.674;23.350;2023-02-10T01:11:07;96549.84;;;-4.76;100.00
23164;BME280;31429;42.674;23.350;2023-02-10T01:12:08;96542.38;;;-4.76;100.00
23164;BME280;31429;42.674;23.350;2023-02-10T01:13:11;96543.84;;;-4.63;100.00
23164;BME280;31429;42.674;23.350;2023-02-10T01:14:12;96546.59;;;-4.75;100.00
23164;BME280;31429;42.674;23.350;2023-02-10T01:15:13;96548.78;;;-4.81;100.00
23164;BME280;31429;42.674;23.350;2023-02-10T01:16:15;96546.59;;;-4.75;100.00
23164;BME280;31429;42.674;23.350;2023-02-10T01:17:16;96545.63;;;-4.77;100.00
23164;BME280;31429;42.674;23.350;2023-02-10T01:18:17;96539.09;;;-4.75;100.00
23164;BME280;31429;42.674;23.350;2023-02-10T01:19:18;96542.88;;;-4.83;100.00
23164;BME280;31429;42.674;23.350;2023-02-10T01:20:19;96541.59;;;-4.75;100.00
23164;BME280;31429;42.674;23.350;2023-02-10T01:21:20;96545.16;;;-4.70;100.00
23164;BME280;31429;42.674;23.350;2023-02-10T01:22:21;96538.28;;;-4.57;100.00
23164;BME280;31429;42.674;23.350;2023-02-10T01:23:22;96534.56;;;-4.66;100.00
23164;BME280;31429;42.674;23.350;2023-02-10T01:24:22;96529.94;;;-4.58;100.00
23164;BME280;31429;42.674;23.350;2023-02-10T01:25:24;96536.34;;;-4.45;100.00
23164;BME280;31429;42.674;23.350;2023-02-10T01:26:25;96540.38;;;-4.49;100.00
23164;BME280;31429;42.674;23.350;2023-02-10T01:27:26;96536.00;;;-4.53;100.00
23164;BME280;31429;42.674;23.350;2023-02-10T01:28:27;96526.88;;;-4.52;100.00
23164;BME280;31429;42.674;23.350;2023-02-10T01:29:27;96539.84;;;-4.42;100.00
23164;BME280;31429;42.674;23.350;2023-02-10T01:30:28;96533.66;;;-4.50;100.00
23164;BME280;31429;42.674;23.350;2023-02-10T01:31:29;96534.41;;;-4.51;100.00
23164;BME280;31429;42.674;23.350;2023-02-10T01:32:29;96530.94;;;-4.54;100.00
23164;BME280;31429;42.674;23.350;2023-02-10T01:33:30;96518.75;;;-4.66;100.00
23164;BME280;31429;42.674;23.350;2023-02-10T01:34:31;96526.56;;;-4.58;100.00
23164;BME280;31429;42.674;23.350;2023-02-10T01:35:31;96516.41;;;-4.63;100.00
23164;BME280;31429;42.674;23.350;2023-02-10T01:36:32;96524.94;;;-4.58;100.00
23164;BME280;31429;42.674;23.350;2023-02-10T01:37:33;96521.94;;;-4.69;100.00
23164;BME280;31429;42.674;23.350;2023-02-10T01:38:34;96532.41;;;-4.76;100.00
23164;BME280;31429;42.674;23.350;2023-02-10T01:39:35;96533.72;;;-4.82;100.00
23164;BME280;31429;42.674;23.350;2023-02-10T01:40:37;96533.97;;;-4.78;100.00
23164;BME280;31429;42.674;23.350;2023-02-10T01:41:37;96528.13;;;-4.78;100.00
23164;BME280;31429;42.674;23.350;2023-02-10T01:42:38;96528.97;;;-4.78;100.00
23164;BME280;31429;42.674;23.350;2023-02-10T01:43:55;96524.59;;;-4.82;100.00
23164;BME280;31429;42.674;23.350;2023-02-10T01:45:16;96519.78;;;-4.79;100.00
23164;BME280;31429;42.674;23.350;2023-02-10T01:46:17;96519.16;;;-4.75;100.00
23164;BME280;31429;42.674;23.350;2023-02-10T01:47:18;96515.59;;;-4.80;100.00
23164;BME280;31429;42.674;23.350;2023-02-10T01:48:24;96520.47;;;-4.81;100.00
23164;BME280;31429;42.674;23.350;2023-02-10T01:49:28;96522.91;;;-4.83;100.00
23164;BME280;31429;42.674;23.350;2023-02-10T01:50:35;96518.59;;;-4.85;100.00
23164;BME280;31429;42.674;23.350;2023-02-10T01:51:41;96518.84;;;-4.81;100.00
23164;BME280;31429;42.674;23.350;2023-02-10T01:52:43;96517.78;;;-4.86;100.00
23164;BME280;31429;42.674;23.350;2023-02-10T01:53:44;96512.97;;;-4.99;100.00
23164;BME280;31429;42.674;23.350;2023-02-10T01:54:48;96511.97;;;-5.02;100.00
23164;BME280;31429;42.674;23.350;2023-02-10T01:55:55;96516.56;;;-4.94;100.00
23164;BME280;31429;42.674;23.350;2023-02-10T01:56:58;96515.75;;;-4.93;100.00
23164;BME280;31429;42.674;23.350;2023-02-10T01:58:01;96508.28;;;-4.93;100.00
23164;BME280;31429;42.674;23.350;2023-02-10T01:59:03;96502.22;;;-4.98;100.00
23164;BME280;31429;42.674;23.350;2023-02-10T02:00:05;96504.00;;;-4.95;100.00
23164;BME280;31429;42.674;23.350;2023-02-10T02:01:06;96513.25;;;-4.93;100.00
23164;BME280;31429;42.674;23.350;2023-02-10T02:02:07;96503.22;;;-4.94;100.00
23164;BME280;31429;42.674;23.350;2023-02-10T02:03:09;96503.06;;;-4.97;100.00
23164;BME280;31429;42.674;23.350;2023-02-10T02:04:09;96506.44;;;-4.97;100.00
23164;BME280;31429;42.674;23.350;2023-02-10T02:05:29;96502.97;;;-4.99;100.00
23164;BME280;31429;42.674;23.350;2023-02-10T02:06:30;96502.66;;;-4.89;100.00
23164;BME280;31429;42.674;23.350;2023-02-10T02:07:34;96494.63;;;-4.83;100.00
23164;BME280;31429;42.674;23.350;2023-02-10T02:08:36;96502.00;;;-5.02;100.00
23164;BME280;31429;42.674;23.350;2023-02-10T02:09:38;96491.94;;;-5.04;100.00
23164;BME280;31429;42.674;23.350;2023-02-10T02:10:50;96495.34;;;-5.02;100.00
23164;BME280;31429;42.674;23.350;2023-02-10T02:11:58;96489.03;;;-4.95;100.00
23164;BME280;31429;42.674;23.350;2023-02-10T02:13:09;96490.25;;;-4.87;100.00
23164;BME280;31429;42.674;23.350;2023-02-10T02:14:22;96488.56;;;-4.88;100.00
23164;BME280;31429;42.674;23.350;2023-02-10T02:15:31;96492.19;;;-4.82;100.00
23164;BME280;31429;42.674;23.350;2023-02-10T02:16:43;96491.97;;;-4.86;100.00
23164;BME280;31429;42.674;23.350;2023-02-10T02:17:51;96488.44;;;-5.07;100.00
23164;BME280;31429;42.674;23.350;2023-02-10T02:18:59;96483.53;;;-5.06;100.00
23164;BME280;31429;42.674;23.350;2023-02-10T02:20:22;96482.53;;;-5.09;100.00
23164;BME280;31429;42.674;23.350;2023-02-10T02:22:08;96487.88;;;-5.02;100.00
23164;BME280;31429;42.674;23.350;2023-02-10T02:23:25;96488.53;;;-5.06;100.00
23164;BME280;31429;42.674;23.350;2023-02-10T02:24:43;96479.25;;;-5.25;100.00
23164;BME280;31429;42.674;23.350;2023-02-10T02:29:10;96484.31;;;-5.07;100.00
23164;BME280;31429;42.674;23.350;2023-02-10T02:30:38;96488.81;;;-5.00;100.00
23164;BME280;31429;42.674;23.350;2023-02-10T02:31:57;96481.44;;;-5.14;100.00
23164;BME280;31429;42.674;23.350;2023-02-10T02:33:01;96490.19;;;-5.22;100.00
23164;BME280;31429;42.674;23.350;2023-02-10T02:34:07;96482.09;;;-5.35;100.00
23164;BME280;31429;42.674;23.350;2023-02-10T02:35:13;96484.59;;;-5.35;100.00
23164;BME280;31429;42.674;23.350;2023-02-10T02:36:18;96483.81;;;-5.50;100.00
23164;BME280;31429;42.674;23.350;2023-02-10T02:37:22;96477.66;;;-5.40;100.00
23164;BME280;31429;42.674;23.350;2023-02-10T02:38:25;96479.34;;;-5.23;100.00
23164;BME280;31429;42.674;23.350;2023-02-10T02:39:26;96477.63;;;-5.24;100.00
23164;BME280;31429;42.674;23.350;2023-02-10T02:40:27;96478.72;;;-5.19;100.00
23164;BME280;31429;42.674;23.350;2023-02-10T02:41:28;96481.28;;;-5.17;100.00
23164;BME280;31429;42.674;23.350;2023-02-10T02:42:30;96476.00;;;-5.24;100.00
23164;BME280;31429;42.674;23.350;2023-02-10T02:43:31;96491.28;;;-5.34;100.00
23164;BME280;31429;42.674;23.350;2023-02-10T02:44:32;96485.59;;;-5.47;100.00
23164;BME280;31429;42.674;23.350;2023-02-10T02:45:42;96470.50;;;-5.66;100.00
23164;BME280;31429;42.674;23.350;2023-02-10T02:46:55;96475.31;;;-5.69;100.00
23164;BME280;31429;42.674;23.350;2023-02-10T02:48:06;96469.19;;;-5.60;100.00
23164;BME280;31429;42.674;23.350;2023-02-10T02:49:12;96488.47;;;-5.56;100.00
23164;BME280;31429;42.674;23.350;2023-02-10T02:50:22;96470.22;;;-5.56;100.00
23164;BME280;31429;42.674;23.350;2023-02-10T02:51:35;96485.44;;;-5.50;100.00
23164;BME280;31429;42.674;23.350;2023-02-10T02:52:43;96482.56;;;-5.74;100.00
23164;BME280;31429;42.674;23.350;2023-02-10T02:53:55;96475.41;;;-6.00;100.00
23164;BME280;31429;42.674;23.350;2023-02-10T02:55:03;96484.81;;;-6.11;100.00
23164;BME280;31429;42.674;23.350;2023-02-10T02:56:13;96481.69;;;-6.23;100.00
23164;BME280;31429;42.674;23.350;2023-02-10T02:57:28;96488.41;;;-6.36;100.00
23164;BME280;31429;42.674;23.350;2023-02-10T02:58:44;96489.69;;;-6.43;100.00
23164;BME280;31429;42.674;23.350;2023-02-10T02:59:47;96484.75;;;-6.58;100.00
23164;BME280;31429;42.674;23.350;2023-02-10T03:00:51;96482.72;;;-6.65;100.00
23164;BME280;31429;42.674;23.350;2023-02-10T03:01:57;96481.69;;;-6.68;100.00
23164;BME280;31429;42.674;23.350;2023-02-10T03:02:59;96485.91;;;-6.67;100.00
23164;BME280;31429;42.674;23.350;2023-02-10T03:04:00;96481.34;;;-6.74;100.00
23164;BME280;31429;42.674;23.350;2023-02-10T03:05:02;96478.09;;;-6.73;100.00
23164;BME280;31429;42.674;23.350;2023-02-10T03:06:03;96477.66;;;-6.81;100.00
23164;BME280;31429;42.674;23.350;2023-02-10T03:07:04;96481.78;;;-6.81;100.00
23164;BME280;31429;42.674;23.350;2023-02-10T03:08:05;96482.78;;;-6.78;100.00
23164;BME280;31429;42.674;23.350;2023-02-10T03:09:06;96472.84;;;-6.78;100.00
23164;BME280;31429;42.674;23.350;2023-02-10T03:10:07;96480.38;;;-6.47;100.00
23164;BME280;31429;42.674;23.350;2023-02-10T03:11:08;96480.66;;;-6.26;100.00
23164;BME280;31429;42.674;23.350;2023-02-10T03:12:08;96481.75;;;-6.21;100.00
23164;BME280;31429;42.674;23.350;2023-02-10T03:13:09;96477.28;;;-6.27;100.00
23164;BME280;31429;42.674;23.350;2023-02-10T03:14:10;96482.28;;;-6.27;100.00
23164;BME280;31429;42.674;23.350;2023-02-10T03:15:10;96476.25;;;-6.16;100.00
23164;BME280;31429;42.674;23.350;2023-02-10T03:16:11;96479.56;;;-6.31;100.00
23164;BME280;31429;42.674;23.350;2023-02-10T03:17:13;96482.56;;;-6.37;100.00
23164;BME280;31429;42.674;23.350;2023-02-10T03:18:14;96485.34;;;-6.47;100.00
23164;BME280;31429;42.674;23.350;2023-02-10T03:19:15;96481.13;;;-6.48;100.00
23164;BME280;31429;42.674;23.350;2023-02-10T03:20:16;96479.06;;;-6.55;100.00
23164;BME280;31429;42.674;23.350;2023-02-10T03:21:17;96481.09;;;-6.64;100.00
23164;BME280;31429;42.674;23.350;2023-02-10T03:22:17;96486.13;;;-6.63;100.00
23164;BME280;31429;42.674;23.350;2023-02-10T03:23:18;96496.03;;;-6.79;100.00
23164;BME280;31429;42.674;23.350;2023-02-10T03:24:19;96487.19;;;-6.88;100.00
23164;BME280;31429;42.674;23.350;2023-02-10T03:25:20;96491.75;;;-6.96;100.00
23164;BME280;31429;42.674;23.350;2023-02-10T03:26:21;96491.28;;;-7.04;100.00
23164;BME280;31429;42.674;23.350;2023-02-10T03:27:21;96491.97;;;-7.06;100.00
23164;BME280;31429;42.674;23.350;2023-02-10T03:28:22;96488.13;;;-7.16;100.00
23164;BME280;31429;42.674;23.350;2023-02-10T03:29:22;96485.53;;;-7.17;100.00
23164;BME280;31429;42.674;23.350;2023-02-10T03:30:24;96483.50;;;-7.24;100.00
23164;BME280;31429;42.674;23.350;2023-02-10T03:31:25;96489.06;;;-7.28;100.00
23164;BME280;31429;42.674;23.350;2023-02-10T03:32:27;96481.94;;;-7.37;100.00
23164;BME280;31429;42.674;23.350;2023-02-10T03:33:27;96486.13;;;-7.36;100.00
23164;BME280;31429;42.674;23.350;2023-02-10T03:34:28;96481.00;;;-7.39;100.00
23164;BME280;31429;42.674;23.350;2023-02-10T03:35:29;96481.00;;;-7.39;100.00
23164;BME280;31429;42.674;23.350;2023-02-10T03:36:29;96496.31;;;-7.31;100.00
23164;BME280;31429;42.674;23.350;2023-02-10T03:37:30;96490.31;;;-7.35;100.00
23164;BME280;31429;42.674;23.350;2023-02-10T03:38:30;96486.22;;;-7.34;100.00
23164;BME280;31429;42.674;23.350;2023-02-10T03:39:31;96479.38;;;-7.38;100.00
23164;BME280;31429;42.674;23.350;2023-02-10T03:40:32;96482.38;;;-7.44;100.00
23164;BME280;31429;42.674;23.350;2023-02-10T03:41:32;96484.84;;;-7.44;100.00
23164;BME280;31429;42.674;23.350;2023-02-10T03:42:33;96477.03;;;-7.50;100.00
23164;BME280;31429;42.674;23.350;2023-02-10T03:43:34;96482.59;;;-7.54;100.00
23164;BME280;31429;42.674;23.350;2023-02-10T03:44:34;96480.88;;;-7.55;100.00
23164;BME280;31429;42.674;23.350;2023-02-10T03:45:38;96477.44;;;-7.57;100.00
23164;BME280;31429;42.674;23.350;2023-02-10T03:46:39;96477.63;;;-7.54;100.00
23164;BME280;31429;42.674;23.350;2023-02-10T03:47:41;96467.22;;;-7.34;100.00
23164;BME280;31429;42.674;23.350;2023-02-10T03:48:41;96471.69;;;-6.84;100.00
23164;BME280;31429;42.674;23.350;2023-02-10T03:49:42;96471.50;;;-6.73;100.00
23164;BME280;31429;42.674;23.350;2023-02-10T03:50:43;96462.66;;;-6.68;100.00
23164;BME280;31429;42.674;23.350;2023-02-10T03:51:44;96473.41;;;-6.53;100.00
23164;BME280;31429;42.674;23.350;2023-02-10T03:52:44;96461.41;;;-6.45;100.00
23164;BME280;31429;42.674;23.350;2023-02-10T03:53:45;96462.81;;;-6.50;100.00
23164;BME280;31429;42.674;23.350;2023-02-10T03:54:45;96472.25;;;-6.59;100.00
23164;BME280;31429;42.674;23.350;2023-02-10T03:55:46;96468.41;;;-6.83;100.00
23164;BME280;31429;42.674;23.350;2023-02-10T03:56:47;96463.53;;;-7.11;100.00
23164;BME280;31429;42.674;23.350;2023-02-10T03:57:48;96460.28;;;-7.25;100.00
23164;BME280;31429;42.674;23.350;2023-02-10T03:58:48;96468.94;;;-7.33;100.00
23164;BME280;31429;42.674;23.350;2023-02-10T03:59:49;96470.13;;;-7.41;100.00
23164;BME280;31429;42.674;23.350;2023-02-10T04:00:50;96474.44;;;-7.51;100.00
23164;BME280;31429;42.674;23.350;2023-02-10T04:01:51;96465.81;;;-7.58;100.00
23164;BME280;31429;42.674;23.350;2023-02-10T04:02:53;96468.38;;;-7.57;100.00
23164;BME280;31429;42.674;23.350;2023-02-10T04:03:53;96464.78;;;-7.62;100.00
23164;BME280;31429;42.674;23.350;2023-02-10T04:04:54;96464.09;;;-7.59;100.00
23164;BME280;31429;42.674;23.350;2023-02-10T04:05:54;96459.06;;;-7.61;100.00
23164;BME280;31429;42.674;23.350;2023-02-10T04:06:55;96463.91;;;-7.62;100.00
23164;BME280;31429;42.674;23.350;2023-02-10T04:07:56;96465.34;;;-7.66;100.00
23164;BME280;31429;42.674;23.350;2023-02-10T04:08:56;96461.94;;;-7.68;100.00
23164;BME280;31429;42.674;23.350;2023-02-10T04:09:57;96460.22;;;-7.69;100.00
23164;BME280;31429;42.674;23.350;2023-02-10T04:10:58;96463.47;;;-7.70;100.00
23164;BME280;31429;42.674;23.350;2023-02-10T04:11:58;96459.09;;;-7.74;100.00
23164;BME280;31429;42.674;23.350;2023-02-10T04:12:59;96462.38;;;-7.75;100.00
23164;BME280;31429;42.674;23.350;2023-02-10T04:13:59;96461.38;;;-7.77;100.00
23164;BME280;31429;42.674;23.350;2023-02-10T04:15:00;96460.63;;;-7.76;100.00
23164;BME280;31429;42.674;23.350;2023-02-10T04:16:02;96461.75;;;-7.71;100.00
23164;BME280;31429;42.674;23.350;2023-02-10T04:17:04;96464.09;;;-7.59;100.00
23164;BME280;31429;42.674;23.350;2023-02-10T04:18:06;96464.19;;;-7.43;100.00
23164;BME280;31429;42.674;23.350;2023-02-10T04:19:06;96467.28;;;-7.18;100.00
23164;BME280;31429;42.674;23.350;2023-02-10T04:20:08;96463.38;;;-7.00;100.00
23164;BME280;31429;42.674;23.350;2023-02-10T04:21:10;96459.09;;;-7.02;100.00
23164;BME280;31429;42.674;23.350;2023-02-10T04:22:11;96466.13;;;-7.10;100.00
23164;BME280;31429;42.674;23.350;2023-02-10T04:23:12;96465.00;;;-7.29;100.00
23164;BME280;31429;42.674;23.350;2023-02-10T04:24:13;96458.22;;;-7.46;100.00
23164;BME280;31429;42.674;23.350;2023-02-10T04:25:13;96466.81;;;-7.54;100.00
23164;BME280;31429;42.674;23.350;2023-02-10T04:26:14;96466.41;;;-7.62;100.00
23164;BME280;31429;42.674;23.350;2023-02-10T04:27:14;96469.13;;;-7.72;100.00
23164;BME280;31429;42.674;23.350;2023-02-10T04:28:15;96462.25;;;-7.76;100.00
23164;BME280;31429;42.674;23.350;2023-02-10T04:29:21;96454.09;;;-7.88;100.00
23164;BME280;31429;42.674;23.350;2023-02-10T04:30:21;96460.19;;;-7.83;100.00
23164;BME280;31429;42.674;23.350;2023-02-10T04:31:22;96469.81;;;-7.75;100.00
23164;BME280;31429;42.674;23.350;2023-02-10T04:32:23;96465.09;;;-7.70;100.00
23164;BME280;31429;42.674;23.350;2023-02-10T04:33:25;96459.94;;;-7.73;100.00
23164;BME280;31429;42.674;23.350;2023-02-10T04:34:26;96461.31;;;-7.78;100.00
23164;BME280;31429;42.674;23.350;2023-02-10T04:35:27;96460.19;;;-7.83;100.00
23164;BME280;31429;42.674;23.350;2023-02-10T04:36:27;96456.69;;;-7.87;100.00
23164;BME280;31429;42.674;23.350;2023-02-10T04:37:28;96462.06;;;-7.79;100.00
23164;BME280;31429;42.674;23.350;2023-02-10T04:38:29;96466.09;;;-7.81;100.00
23164;BME280;31429;42.674;23.350;2023-02-10T04:39:30;96464.97;;;-7.86;100.00
23164;BME280;31429;42.674;23.350;2023-02-10T04:40:30;96467.28;;;-7.89;100.00
23164;BME280;31429;42.674;23.350;2023-02-10T04:41:31;96463.56;;;-7.96;100.00
23164;BME280;31429;42.674;23.350;2023-02-10T04:42:32;96459.38;;;-7.97;100.00
23164;BME280;31429;42.674;23.350;2023-02-10T04:43:33;96466.81;;;-7.97;100.00
23164;BME280;31429;42.674;23.350;2023-02-10T04:44:34;96474.16;;;-7.98;100.00
23164;BME280;31429;42.674;23.350;2023-02-10T04:45:35;96475.88;;;-7.97;100.00
23164;BME280;31429;42.674;23.350;2023-02-10T04:46:36;96479.88;;;-7.99;100.00
23164;BME280;31429;42.674;23.350;2023-02-10T04:47:36;96469.97;;;-7.99;100.00
23164;BME280;31429;42.674;23.350;2023-02-10T04:48:38;96475.09;;;-7.96;100.00
23164;BME280;31429;42.674;23.350;2023-02-10T04:49:39;96480.81;;;-7.97;100.00
23164;BME280;31429;42.674;23.350;2023-02-10T04:50:40;96471.06;;;-7.81;100.00
23164;BME280;31429;42.674;23.350;2023-02-10T04:51:41;96479.31;;;-7.68;100.00
23164;BME280;31429;42.674;23.350;2023-02-10T04:52:41;96476.78;;;-7.82;100.00
23164;BME280;31429;42.674;23.350;2023-02-10T04:53:42;96475.47;;;-7.90;100.00
23164;BME280;31429;42.674;23.350;2023-02-10T04:54:47;96482.47;;;-7.98;100.00
23164;BME280;31429;42.674;23.350;2023-02-10T04:55:48;96478.34;;;-7.97;100.00
23164;BME280;31429;42.674;23.350;2023-02-10T04:56:48;96475.72;;;-8.00;100.00
23164;BME280;31429;42.674;23.350;2023-02-10T04:57:49;96467.91;;;-8.06;100.00
23164;BME280;31429;42.674;23.350;2023-02-10T04:58:50;96474.25;;;-7.97;100.00
23164;BME280;31429;42.674;23.350;2023-02-10T04:59:50;96466.44;;;-8.03;100.00
23164;BME280;31429;42.674;23.350;2023-02-10T05:00:51;96485.63;;;-8.00;100.00
23164;BME280;31429;42.674;23.350;2023-02-10T05:01:54;96475.59;;;-8.02;100.00
23164;BME280;31429;42.674;23.350;2023-02-10T05:02:55;96472.94;;;-8.05;100.00
23164;BME280;31429;42.674;23.350;2023-02-10T05:03:58;96472.19;;;-8.04;100.00
23164;BME280;31429;42.674;23.350;2023-02-10T05:04:58;96482.28;;;-8.01;100.00
23164;BME280;31429;42.674;23.350;2023-02-10T05:06:05;96478.84;;;-8.03;100.00
23164;BME280;31429;42.674;23.350;2023-02-10T05:07:06;96478.00;;;-7.76;100.00
23164;BME280;31429;42.674;23.350;2023-02-10T05:08:07;96478.00;;;-7.33;100.00
23164;BME280;31429;42.674;23.350;2023-02-10T05:09:07;96481.38;;;-7.18;100.00
23164;BME280;31429;42.674;23.350;2023-02-10T05:10:08;96476.22;;;-7.07;100.00
23164;BME280;31429;42.674;23.350;2023-02-10T05:11:13;96472.72;;;-6.95;100.00
23164;BME280;31429;42.674;23.350;2023-02-10T05:12:13;96482.97;;;-6.89;100.00
23164;BME280;31429;42.674;23.350;2023-02-10T05:13:14;96479.03;;;-6.86;100.00
23164;BME280;31429;42.674;23.350;2023-02-10T05:14:15;96483.41;;;-6.82;100.00
23164;BME280;31429;42.674;23.350;2023-02-10T05:15:16;96487.06;;;-6.75;100.00
23164;BME280;31429;42.674;23.350;2023-02-10T05:16:16;96479.22;;;-6.83;100.00
23164;BME280;31429;42.674;23.350;2023-02-10T05:17:17;96483.84;;;-6.74;100.00
23164;BME280;31429;42.674;23.350;2023-02-10T05:18:18;96494.41;;;-6.78;100.00
23164;BME280;31429;42.674;23.350;2023-02-10T05:19:20;96485.38;;;-6.91;100.00
23164;BME280;31429;42.674;23.350;2023-02-10T05:20:21;96491.72;;;-7.11;100.00
23164;BME280;31429;42.674;23.350;2023-02-10T05:21:22;96497.19;;;-7.31;100.00
23164;BME280;31429;42.674;23.350;2023-02-10T05:22:22;96499.13;;;-7.40;100.00
23164;BME280;31429;42.674;23.350;2023-02-10T05:23:26;96497.50;;;-7.39;100.00
23164;BME280;31429;42.674;23.350;2023-02-10T05:24:27;96503.88;;;-7.30;100.00
23164;BME280;31429;42.674;23.350;2023-02-10T05:25:27;96508.75;;;-7.31;100.00
23164;BME280;31429;42.674;23.350;2023-02-10T05:26:28;96507.78;;;-7.48;100.00